Time;durP1;ratioP1;P1;durP2;ratioP2;P2;SDS_P1;SDS_P2;PMS_P1;PMS_P2;Temp;Humidity;BMP_temperature;BMP_pressure;BME280_temperature;BME280_humidity;BME280_pressure;Samples;Min_cycle;Max_cycle;Signal;HPM_P1;HPM_P2
2022/08/12 00:44:52;;;;;;;;;13.50;11.75;;;;;27.42;29.37;101327.22;5063185;28;45318;-61
2022/08/12 00:47:20;;;;;;;;;15.50;12.50;;;;;27.40;29.41;101328.41;5063224;28;45374;-60
2022/08/12 00:49:48;;;;;;;;;11.75;11.75;;;;;27.35;29.44;101328.16;5063487;28;45588;-60
2022/08/12 00:52:15;;;;;;;;;16.25;14.00;;;;;27.32;29.46;101323.94;5054287;28;45397;-59
2022/08/12 00:54:43;;;;;;;;;11.50;11.50;;;;;27.30;29.46;101319.75;5055696;27;45349;-60
2022/08/12 00:57:12;;;;;;;;;15.75;15.00;;;;;27.27;29.72;101318.25;5057630;28;45286;-60
2022/08/12 00:59:48;;;;;;;;;13.00;12.75;;;;;27.21;29.36;101321.69;5054171;28;45336;-60
2022/08/12 01:02:30;;;;;;;;;12.00;11.00;;;;;27.15;29.62;101317.88;5070279;28;46089;-60
2022/08/12 01:13:25;;;;;;;;;12.50;12.25;;;;;26.99;29.77;101316.13;5067510;28;45433;-59
2022/08/12 01:16:00;;;;;;;;;13.25;11.75;;;;;26.96;29.88;101305.69;5042439;28;45233;-60
2022/08/12 01:18:34;;;;;;;;;11.50;11.00;;;;;26.90;29.83;101309.13;5041765;28;45343;-60
2022/08/12 01:21:03;;;;;;;;;14.00;14.00;;;;;26.87;29.73;101317.63;5042533;28;45376;-59
2022/08/12 01:23:47;;;;;;;;;15.00;13.00;;;;;26.83;29.88;101312.75;5045099;28;45973;-61
2022/08/12 01:26:23;;;;;;;;;14.50;11.00;;;;;26.81;29.95;101321.06;5049338;28;45347;-60
2022/08/12 01:28:54;;;;;;;;;12.00;10.00;;;;;26.79;30.08;101319.56;5061065;28;45279;-60
2022/08/12 01:31:20;;;;;;;;;15.25;12.25;;;;;26.79;29.83;101312.28;5062748;28;45371;-60
2022/08/12 01:34:11;;;;;;;;;14.25;14.00;;;;;26.80;30.17;101313.97;5062384;28;45334;-60
2022/08/12 01:36:45;;;;;;;;;13.25;12.75;;;;;26.78;30.32;101313.31;5062516;28;45171;-60
2022/08/12 01:39:14;;;;;;;;;11.00;11.00;;;;;26.76;30.34;101309.09;5062686;27;45176;-59
2022/08/12 01:41:49;;;;;;;;;13.00;12.75;;;;;26.73;30.24;101301.38;5062573;28;45399;-60
2022/08/12 01:44:15;;;;;;;;;13.50;13.00;;;;;26.71;30.59;101302.41;5061923;28;46376;-60
2022/08/12 01:47:04;;;;;;;;;12.00;12.00;;;;;26.68;30.25;101301.91;5062112;28;45509;-60
2022/08/12 01:49:53;;;;;;;;;14.25;12.00;;;;;26.67;30.47;101309.19;5062284;28;45437;-60
2022/08/12 01:52:42;;;;;;;;;12.00;12.00;;;;;26.71;30.15;101309.66;5062421;28;45255;-60
2022/08/12 01:55:10;;;;;;;;;12.50;12.25;;;;;26.70;30.38;101310.66;5062003;28;45402;-60
2022/08/12 01:57:46;;;;;;;;;12.75;12.75;;;;;26.65;30.42;101308.53;5061798;28;45282;-60
2022/08/12 02:00:14;;;;;;;;;10.75;9.75;;;;;26.62;30.22;101308.03;5060521;28;45158;-59
2022/08/12 02:02:47;;;;;;;;;14.00;13.00;;;;;26.64;30.70;101308.72;5062028;28;45573;-60
2022/08/12 02:11:28;;;;;;;;;13.50;11.25;;;;;26.48;30.92;101295.34;5062057;28;45231;-60
2022/08/12 02:14:20;;;;;;;;;12.75;12.50;;;;;26.43;30.51;101295.88;5059574;28;45231;-60
2022/08/12 02:17:00;;;;;;;;;16.50;13.75;;;;;26.35;30.93;101293.19;5040524;28;45648;-60
2022/08/12 02:19:41;;;;;;;;;13.00;12.75;;;;;26.29;31.08;101291.22;5061778;28;45653;-60
2022/08/12 02:22:32;;;;;;;;;14.75;14.00;;;;;26.23;30.92;101287.41;5061855;28;45341;-60
2022/08/12 02:25:04;;;;;;;;;13.50;13.50;;;;;26.21;31.36;101286.72;5051735;27;45623;-60
2022/08/12 02:27:38;;;;;;;;;13.75;13.25;;;;;26.20;30.91;101287.72;5057669;28;45537;-59
2022/08/12 02:30:07;;;;;;;;;11.75;11.00;;;;;26.19;31.29;101285.22;5061449;28;45402;-59
2022/08/12 02:32:37;;;;;;;;;13.75;12.50;;;;;26.21;31.47;101288.56;5061781;28;45240;-59
2022/08/12 02:35:05;;;;;;;;;13.00;13.00;;;;;26.24;31.45;101283.66;5061790;28;45487;-60
2022/08/12 02:37:35;;;;;;;;;11.50;11.50;;;;;26.21;31.49;101278.59;5061744;28;45290;-60
2022/08/12 02:40:02;;;;;;;;;12.00;12.00;;;;;26.18;31.21;101289.78;5061701;28;45297;-60
2022/08/12 02:42:32;;;;;;;;;11.25;11.25;;;;;26.12;31.12;101277.00;5061765;28;45347;-60
2022/08/12 02:45:02;;;;;;;;;13.75;11.50;;;;;26.06;31.22;101291.19;5061273;28;45313;-60
2022/08/12 02:47:30;;;;;;;;;17.00;14.50;;;;;26.04;31.59;101291.38;5061332;28;46510;-60
2022/08/12 02:49:57;;;;;;;;;11.00;11.00;;;;;26.01;31.09;101289.06;5061248;28;45316;-60
2022/08/12 02:52:25;;;;;;;;;16.50;15.75;;;;;25.99;31.32;101283.00;5061467;28;45215;-60
2022/08/12 02:54:58;;;;;;;;;15.75;13.75;;;;;26.03;31.87;101278.06;5059945;28;45339;-60
2022/08/12 02:57:24;;;;;;;;;12.75;12.75;;;;;26.04;31.50;101279.75;5061272;28;45433;-60
2022/08/12 02:59:52;;;;;;;;;15.50;13.75;;;;;26.06;31.40;101283.09;5060928;28;45245;-60
2022/08/12 03:02:22;;;;;;;;;13.50;12.25;;;;;26.02;31.91;101281.78;5061471;28;45366;-59
2022/08/12 03:04:55;;;;;;;;;14.00;14.00;;;;;26.00;31.26;101281.97;5061312;28;45163;-60
2022/08/12 03:07:35;;;;;;;;;14.25;12.25;;;;;25.98;31.81;101278.59;5061041;28;46184;-60
2022/08/12 03:10:07;;;;;;;;;11.00;11.00;;;;;25.96;31.72;101282.50;5061165;28;45422;-60
2022/08/12 03:12:45;;;;;;;;;13.00;11.00;;;;;25.96;31.63;101277.09;5061125;28;45242;-60
2022/08/12 03:15:13;;;;;;;;;12.25;11.50;;;;;25.96;31.76;101277.94;5060669;28;45562;-60
2022/08/12 03:17:59;;;;;;;;;11.75;11.50;;;;;25.98;32.14;101278.59;5060909;28;45310;-60
2022/08/12 03:20:25;;;;;;;;;13.75;12.75;;;;;25.99;31.87;101280.31;5060901;28;45422;-60
2022/08/12 03:22:51;;;;;;;;;13.50;13.50;;;;;25.99;31.80;101282.13;5061069;28;45326;-60
2022/08/12 03:25:25;;;;;;;;;12.00;11.50;;;;;25.95;31.84;101280.81;5048768;28;45460;-60
2022/08/12 03:27:56;;;;;;;;;11.25;11.25;;;;;25.87;31.79;101289.81;5040631;28;45479;-60
2022/08/12 03:30:31;;;;;;;;;13.50;10.75;;;;;25.79;32.15;101281.75;5040414;28;45305;-60
2022/08/12 03:32:59;;;;;;;;;11.75;11.75;;;;;25.74;31.86;101286.84;5040884;28;45348;-60
2022/08/12 03:35:29;;;;;;;;;13.00;13.00;;;;;25.64;32.24;101283.47;5040633;28;45478;-60
2022/08/12 03:38:08;;;;;;;;;14.50;13.00;;;;;25.54;32.03;101289.09;5040565;28;46257;-60
2022/08/12 04:00:24;;;;;;;;;14.25;11.75;;;;;25.28;32.72;101287.53;5060270;28;45399;-59
2022/08/12 04:03:00;;;;;;;;;14.50;13.75;;;;;25.25;32.81;101293.25;5060366;28;45306;-60
2022/08/12 04:05:27;;;;;;;;;16.50;12.75;;;;;25.29;33.16;101286.50;5060516;28;45358;-60
2022/08/12 04:07:53;;;;;;;;;12.75;11.00;;;;;25.37;33.61;101282.09;5060475;28;45348;-60
2022/08/12 04:10:19;;;;;;;;;15.00;13.25;;;;;25.38;33.60;101283.78;5060432;28;45368;-60
2022/08/12 04:15:42;;;;;;;;;13.00;11.00;;;;;25.27;33.16;101276.88;5060237;28;45338;-59
2022/08/12 04:18:08;;;;;;;;;12.75;12.75;;;;;25.25;33.39;101276.22;5060386;28;45276;-60
2022/08/12 04:20:35;;;;;;;;;15.75;14.75;;;;;25.25;33.78;101281.63;5060113;28;46136;-60
2022/08/12 04:23:03;;;;;;;;;16.50;14.75;;;;;25.20;33.76;101276.75;5060116;28;45282;-59
2022/08/12 04:25:31;;;;;;;;;17.25;16.75;;;;;25.22;33.31;101272.03;5046010;28;45450;-60
2022/08/12 04:27:56;;;;;;;;;16.00;14.75;;;;;25.22;33.96;101281.97;5046238;28;45248;-60
2022/08/12 04:30:22;;;;;;;;;20.50;14.00;;;;;25.18;34.03;101281.47;5059642;28;46687;-60
2022/08/12 04:32:50;;;;;;;;;15.00;14.00;;;;;25.15;33.47;101281.81;5059725;28;45438;-60
2022/08/12 04:35:17;;;;;;;;;19.25;18.25;;;;;25.11;33.58;101277.78;5059931;28;45429;-60
2022/08/12 04:37:44;;;;;;;;;20.00;17.25;;;;;25.10;33.76;101283.34;5060601;28;45479;-60
2022/08/12 04:40:12;;;;;;;;;17.25;15.25;;;;;25.10;34.26;101289.56;5063280;28;46150;-60
2022/08/12 04:42:37;;;;;;;;;19.25;18.75;;;;;25.08;33.69;101285.38;5063370;28;45237;-60
2022/08/12 04:45:03;;;;;;;;;17.00;16.00;;;;;25.09;33.99;101290.59;5063060;28;45299;-60
2022/08/12 04:47:29;;;;;;;;;16.25;15.25;;;;;25.10;33.95;101289.56;5063601;28;45265;-60
2022/08/12 04:49:55;;;;;;;;;8.00;8.00;;;;;25.11;34.31;101282.31;5063145;28;45160;-60
2022/08/12 04:52:20;;;;;;;;;18.00;15.75;;;;;25.11;34.10;101280.47;5063061;28;45219;-60
2022/08/12 04:54:47;;;;;;;;;15.25;15.00;;;;;25.15;34.18;101286.38;5063279;28;45381;-60
2022/08/12 04:57:12;;;;;;;;;17.75;13.00;;;;;25.17;34.23;101281.63;5063296;28;45358;-60
2022/08/12 04:59:38;;;;;;;;;7.00;6.00;;;;;25.18;33.74;101289.56;5062757;28;45971;-60
2022/08/12 05:02:03;;;;;;;;;17.75;14.50;;;;;25.21;34.07;101280.28;5063127;28;45356;-60
2022/08/12 05:04:30;;;;;;;;;17.00;13.50;;;;;25.20;34.40;101289.38;5063051;28;45330;-60
2022/08/12 05:06:55;;;;;;;;;14.75;13.75;;;;;25.19;34.48;101285.84;5063202;28;45605;-60
2022/08/12 05:09:21;;;;;;;;;14.75;14.00;;;;;25.19;33.85;101293.09;5062728;28;46088;-60
2022/08/12 05:11:48;;;;;;;;;16.00;13.00;;;;;25.23;34.19;101294.44;5063013;28;45272;-60
2022/08/12 05:14:14;;;;;;;;;13.25;12.00;;;;;25.27;34.41;101291.19;5062627;28;45300;-60
2022/08/12 05:16:40;;;;;;;;;13.50;13.50;;;;;25.31;33.89;101289.00;5063068;28;45216;-60
2022/08/12 05:19:06;;;;;;;;;17.00;11.75;;;;;25.34;34.04;101292.19;5062701;28;45287;-60
2022/08/12 05:21:32;;;;;;;;;13.75;13.75;;;;;25.37;34.47;101295.59;5062844;28;45349;-60
2022/08/12 05:23:57;;;;;;;;;13.00;11.75;;;;;25.36;33.79;101296.56;5061479;28;45330;-60
2022/08/12 05:26:23;;;;;;;;;15.25;13.50;;;;;25.35;33.86;101301.13;5042786;28;45517;-60
2022/08/12 05:28:50;;;;;;;;;16.25;12.00;;;;;25.35;34.40;101298.44;5042228;28;45510;-60
2022/08/12 05:31:16;;;;;;;;;16.75;14.00;;;;;25.30;34.24;101295.44;5042303;28;45472;-60
2022/08/12 05:33:44;;;;;;;;;12.50;12.50;;;;;25.25;33.95;101295.09;5042404;28;45303;-60
2022/08/12 05:36:13;;;;;;;;;12.75;11.50;;;;;25.24;33.81;101306.91;5042519;28;45439;-60
2022/08/12 05:38:54;;;;;;;;;13.25;13.00;;;;;25.23;33.83;101299.81;5041761;28;45445;-60
2022/08/12 05:41:20;;;;;;;;;15.25;10.50;;;;;25.27;34.37;101307.38;5042452;28;45598;-60
2022/08/12 05:43:47;;;;;;;;;12.25;12.25;;;;;25.28;34.62;101303.69;5058218;28;45514;-60
2022/08/12 05:46:13;;;;;;;;;16.50;15.00;;;;;25.31;34.20;101306.03;5062565;28;45302;-60
2022/08/12 05:48:40;;;;;;;;;14.25;13.25;;;;;25.34;34.64;101307.53;5061903;28;45436;-60
2022/08/12 05:51:06;;;;;;;;;13.50;11.75;;;;;25.39;34.30;101298.94;5060943;28;45354;-60
2022/08/12 05:53:32;;;;;;;;;15.25;14.25;;;;;25.44;34.62;101302.81;5062305;28;45239;-60
2022/08/12 05:55:57;;;;;;;;;14.00;13.25;;;;;25.46;34.30;101310.72;5060732;28;45279;-60
2022/08/12 05:58:23;;;;;;;;;12.50;12.00;;;;;25.49;34.57;101311.19;5061667;28;45240;-60
2022/08/12 06:00:48;;;;;;;;;14.25;12.50;;;;;25.52;34.02;101308.16;5061882;28;45159;-60
2022/08/12 06:03:16;;;;;;;;;15.00;12.00;;;;;25.60;34.01;101310.84;5062092;28;45277;-60
2022/08/12 06:05:44;;;;;;;;;19.00;17.00;;;;;25.70;34.38;101309.78;5062056;28;45300;-60
2022/08/12 06:08:10;;;;;;;;;14.00;13.00;;;;;25.75;34.01;101312.81;5061765;28;45378;-60
2022/08/12 06:10:36;;;;;;;;;13.75;12.00;;;;;25.80;34.20;101313.13;5061970;27;45389;-60
2022/08/12 06:13:06;;;;;;;;;19.75;16.75;;;;;25.77;34.04;101306.22;5061781;28;45233;-60
2022/08/12 06:15:36;;;;;;;;;15.00;14.25;;;;;25.83;34.13;101313.63;5061855;28;45356;-60
2022/08/12 06:18:10;;;;;;;;;12.25;12.00;;;;;25.91;33.82;101311.88;5061642;28;45212;-59
2022/08/12 06:20:36;;;;;;;;;13.00;13.00;;;;;25.98;33.87;101312.84;5061823;28;45252;-60
2022/08/12 06:23:02;;;;;;;;;12.50;12.25;;;;;26.02;33.59;101311.50;5061945;28;45271;-61
2022/08/12 06:25:28;;;;;;;;;14.75;13.50;;;;;26.05;33.70;101309.25;5047074;28;45620;-60
2022/08/12 06:27:55;;;;;;;;;16.50;14.50;;;;;26.08;33.49;101310.78;5041641;28;46185;-60
2022/08/12 06:30:21;;;;;;;;;14.50;13.25;;;;;26.11;33.74;101318.53;5041042;28;45256;-60
2022/08/12 06:32:48;;;;;;;;;13.75;13.75;;;;;26.13;33.63;101311.91;5041679;28;45494;-60
2022/08/12 06:35:16;;;;;;;;;8.50;7.00;;;;;26.21;33.55;101307.47;5041551;28;45550;-60
2022/08/12 06:37:45;;;;;;;;;12.00;11.00;;;;;26.30;33.49;101306.41;5041214;28;45494;-60
2022/08/12 06:40:12;;;;;;;;;15.50;14.25;;;;;26.39;33.55;101311.63;5039926;28;45254;-60
2022/08/12 06:42:47;;;;;;;;;15.50;14.25;;;;;26.51;33.22;101308.47;5041592;28;45320;-60
2022/08/12 06:45:14;;;;;;;;;13.50;13.00;;;;;26.62;33.42;101308.91;5041187;28;45453;-60
2022/08/12 06:47:40;;;;;;;;;15.00;14.00;;;;;26.67;33.08;101314.56;5041136;28;45404;-60
2022/08/12 06:50:07;;;;;;;;;13.75;13.75;;;;;26.69;33.17;101315.22;5056236;28;45332;-60
2022/08/12 06:52:32;;;;;;;;;14.75;13.00;;;;;26.73;32.78;101312.19;5061558;28;45181;-60
2022/08/12 06:54:58;;;;;;;;;11.75;11.75;;;;;26.70;32.91;101305.25;5061306;28;45237;-60
2022/08/12 06:57:28;;;;;;;;;17.00;13.75;;;;;26.79;32.64;101320.41;5061186;28;45400;-60
2022/08/12 06:59:54;;;;;;;;;23.75;17.50;;;;;26.81;32.93;101307.53;5060751;28;45366;-60
2022/08/12 07:02:21;;;;;;;;;12.50;12.00;;;;;26.86;32.82;101310.53;5060696;28;45317;-61
2022/08/12 07:04:51;;;;;;;;;14.00;12.75;;;;;26.92;32.72;101306.25;5061227;28;45551;-60
2022/08/12 07:07:17;;;;;;;;;15.25;12.00;;;;;26.97;32.63;101312.78;5056434;28;45376;-60
2022/08/12 07:09:43;;;;;;;;;13.00;11.75;;;;;26.99;32.59;101307.19;5058058;28;45336;-60
2022/08/12 07:12:15;;;;;;;;;12.00;12.00;;;;;27.02;32.57;101309.53;5061289;28;45323;-59
2022/08/12 07:14:41;;;;;;;;;12.25;11.25;;;;;27.04;32.54;101312.94;5060774;28;45346;-60
2022/08/12 07:17:07;;;;;;;;;14.00;11.50;;;;;27.08;32.30;101306.09;5060896;28;45418;-60
2022/08/12 07:19:33;;;;;;;;;12.75;12.50;;;;;27.09;32.26;101305.06;5060912;28;45296;-60
2022/08/12 07:22:05;;;;;;;;;14.00;14.00;;;;;27.10;32.41;101301.38;5061049;28;45513;-60
2022/08/12 07:24:31;;;;;;;;;11.00;9.00;;;;;27.14;32.29;101301.81;5055077;28;45344;-60
2022/08/12 07:26:57;;;;;;;;;15.75;10.25;;;;;27.17;32.11;101296.88;5040708;28;46636;-60
2022/08/12 07:29:24;;;;;;;;;10.00;10.00;;;;;27.20;32.17;101296.53;5040408;28;45344;-60
2022/08/12 07:31:51;;;;;;;;;12.50;10.00;;;;;27.26;31.98;101301.19;5040637;28;45331;-60
2022/08/12 07:34:17;;;;;;;;;13.25;12.25;;;;;27.34;32.12;101299.41;5040647;28;45275;-60
2022/08/12 07:36:44;;;;;;;;;13.75;11.75;;;;;27.39;32.10;101297.81;5040330;28;46417;-60
2022/08/12 07:39:10;;;;;;;;;12.25;12.00;;;;;27.45;31.76;101288.13;5040514;28;45297;-60
2022/08/12 07:41:35;;;;;;;;;13.75;11.50;;;;;27.48;31.68;101295.84;5051979;28;45169;-60
2022/08/12 07:44:04;;;;;;;;;10.25;10.25;;;;;27.51;31.62;101287.38;5060431;28;45454;-60
2022/08/12 07:46:35;;;;;;;;;12.00;11.25;;;;;27.58;31.23;101293.72;5060417;28;45336;-60
2022/08/12 07:49:09;;;;;;;;;12.00;10.25;;;;;27.62;31.39;101284.16;5060594;28;45377;-60
2022/08/12 07:51:35;;;;;;;;;19.75;13.25;;;;;27.66;31.21;101290.06;5060665;28;45282;-60
2022/08/12 07:54:02;;;;;;;;;11.00;9.00;;;;;27.71;31.17;101285.75;5060649;28;45195;-60
2022/08/12 07:56:29;;;;;;;;;10.75;10.00;;;;;27.79;30.94;101284.81;5060217;28;45481;-60
2022/08/12 07:58:57;;;;;;;;;12.50;10.50;;;;;27.86;31.21;101284.91;5060069;28;45431;-60
2022/08/12 08:01:23;;;;;;;;;15.75;12.50;;;;;27.91;30.66;101286.00;5059932;28;45205;-60
2022/08/12 08:06:40;;;;;;;;;10.25;9.75;;;;;28.02;30.34;101290.91;5058398;28;45247;-60
2022/08/12 08:09:10;;;;;;;;;13.50;11.00;;;;;28.05;29.90;101287.84;5058806;28;45367;-60
2022/08/12 08:14:20;;;;;;;;;9.50;9.50;;;;;28.17;29.65;101290.03;5068418;28;45261;-60
2022/08/12 08:16:47;;;;;;;;;10.75;10.00;;;;;28.25;29.64;101289.91;5066572;28;45230;-59
2022/08/12 08:19:18;;;;;;;;;12.75;10.50;;;;;28.28;29.44;101295.78;5052164;28;45249;-60
2022/08/12 08:21:44;;;;;;;;;10.75;10.75;;;;;28.35;29.67;101295.84;5072255;28;45247;-60
2022/08/12 08:24:16;;;;;;;;;11.75;10.75;;;;;28.40;29.29;101293.41;5074526;28;45165;-59
2022/08/12 08:26:42;;;;;;;;;14.00;11.50;;;;;28.47;29.27;101290.75;5069327;28;45420;-59
2022/08/12 08:29:08;;;;;;;;;10.25;9.25;;;;;28.52;29.58;101299.16;5068933;28;45447;-59
2022/08/12 08:31:36;;;;;;;;;11.00;9.25;;;;;28.55;29.14;101302.31;5070104;27;45498;-59
2022/08/12 08:34:01;;;;;;;;;10.00;9.00;;;;;28.60;28.92;101299.03;5071086;28;45434;-58
2022/08/12 08:36:27;;;;;;;;;9.75;8.00;;;;;28.67;29.08;101310.72;5072225;28;46349;-59
2022/08/12 08:38:53;;;;;;;;;12.00;9.50;;;;;28.70;29.13;101295.97;5071277;28;45321;-58
2022/08/12 08:44:03;;;;;;;;;12.50;11.75;;;;;28.78;28.68;101302.09;5070048;28;45317;-60
2022/08/12 08:46:28;;;;;;;;;9.75;8.50;;;;;28.82;29.08;101288.97;5073560;28;45601;-59
2022/08/12 08:48:54;;;;;;;;;9.00;8.50;;;;;28.86;29.07;101293.81;5071461;28;45346;-59
2022/08/12 08:51:25;;;;;;;;;28.50;24.25;;;;;28.91;28.76;101291.38;5072152;27;45266;-59
2022/08/12 08:53:52;;;;;;;;;8.75;7.50;;;;;28.98;28.64;101299.53;5068747;28;45515;-59
2022/08/12 08:56:18;;;;;;;;;7.00;7.00;;;;;29.05;28.46;101294.16;5068668;28;45418;-59
2022/08/12 08:58:44;;;;;;;;;9.25;8.25;;;;;29.10;28.17;101292.53;5069988;28;45429;-59
2022/08/12 09:01:10;;;;;;;;;12.25;8.50;;;;;29.16;28.23;101296.34;5072127;27;45389;-59
2022/08/12 09:03:36;;;;;;;;;8.50;8.25;;;;;29.22;28.62;101291.97;5070867;28;45452;-59
2022/08/12 09:06:01;;;;;;;;;10.75;8.25;;;;;29.28;28.44;101289.28;5070904;28;46083;-59
2022/08/12 09:08:27;;;;;;;;;11.75;10.50;;;;;29.37;27.99;101295.38;5067338;28;45436;-59
2022/08/12 09:10:57;;;;;;;;;9.25;7.00;;;;;29.42;27.82;101291.03;5068190;28;45504;-59
2022/08/12 09:13:31;;;;;;;;;11.25;10.25;;;;;29.49;27.60;101288.38;5069462;28;45456;-59
2022/08/12 09:15:57;;;;;;;;;6.00;6.00;;;;;29.58;27.41;101291.78;5069752;27;46206;-59
2022/08/12 09:18:23;;;;;;;;;4.50;4.50;;;;;29.64;27.18;101289.09;5071262;28;45391;-59
2022/08/12 09:20:49;;;;;;;;;8.75;7.25;;;;;29.71;27.50;101294.56;5066987;28;45272;-59
2022/08/12 09:23:16;;;;;;;;;8.00;7.25;;;;;29.79;27.47;101290.81;5066923;28;45546;-59
2022/08/12 09:25:43;;;;;;;;;9.50;8.75;;;;;29.87;27.72;101287.91;5071825;28;45543;-59
2022/08/12 09:28:10;;;;;;;;;9.25;9.25;;;;;29.93;26.77;101282.47;5070370;28;45363;-59
2022/08/12 09:30:44;;;;;;;;;9.50;8.00;;;;;29.99;26.97;101275.41;5066714;27;45154;-59
2022/08/12 09:33:11;;;;;;;;;13.25;9.25;;;;;30.05;26.81;101288.16;5069374;27;45240;-59
2022/08/12 09:35:43;;;;;;;;;9.25;6.75;;;;;30.10;26.68;101277.56;5067715;27;45533;-59
2022/08/12 09:38:14;;;;;;;;;10.00;9.00;;;;;30.18;26.83;101279.25;5070219;28;45471;-59
2022/08/12 09:40:40;;;;;;;;;7.00;6.25;;;;;30.27;27.09;101278.00;5068813;28;45288;-59
2022/08/12 09:45:49;;;;;;;;;7.50;7.50;;;;;30.44;26.20;101270.28;5066598;28;45361;-59
2022/08/12 09:48:16;;;;;;;;;9.75;8.00;;;;;30.51;26.21;101271.94;5067338;28;45325;-59
2022/08/12 09:50:44;;;;;;;;;3.00;3.00;;;;;30.60;26.21;101269.03;5071759;27;45252;-59
2022/08/12 09:53:17;;;;;;;;;9.25;8.00;;;;;30.67;26.88;101264.44;5069129;27;45281;-59
2022/08/12 09:55:45;;;;;;;;;5.75;5.75;;;;;30.73;26.55;101269.03;5068682;28;45497;-59
2022/08/12 09:58:10;;;;;;;;;8.00;7.00;;;;;30.75;26.18;101262.34;5068371;27;45382;-59
2022/08/12 10:00:36;;;;;;;;;6.50;6.50;;;;;30.79;25.77;101269.03;5072148;27;45229;-60
2022/08/12 10:03:09;;;;;;;;;10.75;8.25;;;;;30.85;26.22;101254.56;5068751;28;45572;-59
2022/08/12 10:05:39;;;;;;;;;9.25;8.25;;;;;30.89;26.23;101256.88;5069289;27;45270;-59
2022/08/12 10:08:09;;;;;;;;;8.25;7.75;;;;;30.89;25.93;101243.25;5064099;28;45596;-59
2022/08/12 10:13:41;;;;;;;;;8.50;8.50;;;;;31.04;25.49;101241.13;5068298;28;45454;-59
2022/08/12 10:16:16;;;;;;;;;9.25;8.00;;;;;31.06;25.40;101234.44;5068135;28;45331;-59
2022/08/12 10:18:56;;;;;;;;;10.00;8.00;;;;;31.14;25.70;101236.09;5065423;28;45387;-59
2022/08/12 10:21:25;;;;;;;;;5.25;4.50;;;;;31.19;25.43;101236.28;5068051;28;45310;-59
2022/08/12 10:23:52;;;;;;;;;7.50;7.00;;;;;31.25;25.30;101230.00;5071409;27;45250;-59
2022/08/12 10:31:50;;;;;;;;;6.50;5.00;;;;;31.36;25.15;101221.19;5066531;28;45557;-59
2022/08/12 10:34:18;;;;;;;;;7.00;7.00;;;;;31.40;24.96;101225.13;5066612;28;45510;-59
2022/08/12 10:36:45;;;;;;;;;7.25;5.00;;;;;31.47;24.51;101208.75;5059231;28;46348;-60
2022/08/12 10:39:15;;;;;;;;;6.25;4.50;;;;;31.56;24.95;101217.53;5062353;28;45390;-59
2022/08/12 10:44:25;;;;;;;;;6.25;5.00;;;;;31.62;24.66;101212.03;5059125;28;45425;-59
2022/08/12 10:46:51;;;;;;;;;6.00;6.00;;;;;31.65;24.53;101213.47;5065050;28;45930;-60
2022/08/12 10:49:18;;;;;;;;;7.75;7.00;;;;;31.66;24.34;101210.53;5070394;27;45381;-59
2022/08/12 10:51:47;;;;;;;;;9.75;6.75;;;;;31.72;24.44;101219.72;5068107;28;45443;-59
2022/08/12 10:54:15;;;;;;;;;9.00;7.25;;;;;31.72;24.72;101214.28;5068749;27;45324;-60
2022/08/12 10:56:44;;;;;;;;;6.50;6.50;;;;;31.78;24.48;101209.88;5064210;28;45470;-60
2022/08/12 10:59:09;;;;;;;;;9.25;6.25;;;;;31.84;24.57;101211.75;5070613;28;45459;-59
2022/08/12 11:01:35;;;;;;;;;8.25;8.25;;;;;31.90;24.59;101199.94;5069940;28;45284;-60
2022/08/12 11:04:01;;;;;;;;;8.00;6.50;;;;;31.92;24.43;101193.22;5068579;28;45243;-60
2022/08/12 11:06:27;;;;;;;;;8.75;7.50;;;;;31.95;24.38;101191.94;5062695;28;46300;-59
2022/08/12 11:08:55;;;;;;;;;5.50;5.50;;;;;32.00;24.24;101189.41;5066879;27;45319;-58
2022/08/12 11:11:21;;;;;;;;;7.00;6.75;;;;;32.04;23.85;101187.06;5067694;28;45332;-58
2022/08/12 11:13:46;;;;;;;;;7.00;7.00;;;;;32.08;23.90;101182.84;5068990;28;45439;-59
2022/08/12 11:16:13;;;;;;;;;7.25;7.00;;;;;32.11;23.86;101174.22;5065592;28;45670;-59
2022/08/12 11:18:39;;;;;;;;;7.50;6.00;;;;;32.19;23.81;101166.59;5066679;27;45174;-59
2022/08/12 11:21:05;;;;;;;;;7.25;6.00;;;;;32.27;23.85;101161.91;5069786;28;45226;-59
2022/08/12 11:23:31;;;;;;;;;8.75;7.75;;;;;32.31;23.64;101164.00;5070157;28;45402;-59
2022/08/12 11:25:56;;;;;;;;;7.50;6.50;;;;;32.39;23.11;101158.28;5068175;27;45219;-59
2022/08/12 11:28:22;;;;;;;;;7.75;6.75;;;;;32.34;23.18;101157.28;5066926;28;45436;-59
2022/08/12 11:30:48;;;;;;;;;5.25;4.50;;;;;32.37;22.94;101170.44;5063123;28;45289;-59
2022/08/12 11:33:14;;;;;;;;;7.50;5.75;;;;;32.41;22.79;101160.78;5065765;28;45582;-60
2022/08/12 11:35:42;;;;;;;;;13.50;13.50;;;;;32.45;23.03;101170.16;5069490;28;45983;-57
2022/08/12 11:38:09;;;;;;;;;5.00;5.00;;;;;32.52;22.53;101156.44;5066792;28;45208;-58
2022/08/12 11:40:35;;;;;;;;;6.25;6.25;;;;;32.57;22.58;101154.72;5064846;28;45481;-59
2022/08/12 11:43:00;;;;;;;;;7.75;6.00;;;;;32.57;22.42;101148.44;5062384;27;45592;-59
2022/08/12 11:45:27;;;;;;;;;9.50;8.00;;;;;32.56;22.44;101136.69;5063849;27;46656;-59
2022/08/12 11:47:58;;;;;;;;;6.25;6.25;;;;;32.60;22.49;101137.06;5069136;28;45716;-59
2022/08/12 11:50:23;;;;;;;;;7.75;7.75;;;;;32.63;22.79;101144.81;5069726;28;45296;-59
2022/08/12 11:52:50;;;;;;;;;18.75;13.00;;;;;32.67;22.58;101143.28;5057419;28;45624;-59
2022/08/12 11:55:17;;;;;;;;;5.00;4.50;;;;;32.72;22.39;101138.81;5043336;28;45457;-59
2022/08/12 11:57:50;;;;;;;;;7.75;7.00;;;;;32.82;22.58;101132.00;5043300;28;45408;-59
2022/08/12 12:00:16;;;;;;;;;6.00;5.00;;;;;32.88;22.65;101140.13;5043582;28;45314;-59
2022/08/12 12:02:42;;;;;;;;;6.50;5.00;;;;;32.92;22.27;101129.59;5043556;28;45240;-59
2022/08/12 12:05:07;;;;;;;;;6.00;6.00;;;;;32.94;22.23;101131.03;5043310;28;46248;-59
2022/08/12 12:07:37;;;;;;;;;6.00;6.00;;;;;33.01;22.21;101125.47;5043541;28;45332;-59
2022/08/12 12:10:03;;;;;;;;;7.00;5.25;;;;;33.04;22.01;101128.59;5043955;28;45335;-59
2022/08/12 12:12:28;;;;;;;;;8.50;7.75;;;;;33.04;22.17;101131.31;5043683;28;45266;-59
2022/08/12 12:14:54;;;;;;;;;7.00;5.00;;;;;33.04;22.02;101136.78;5042905;28;45679;-59
2022/08/12 12:17:19;;;;;;;;;5.25;5.25;;;;;33.02;21.49;101124.41;5043471;28;45220;-59
2022/08/12 12:19:45;;;;;;;;;5.25;5.25;;;;;33.01;21.69;101115.38;5043710;28;45479;-60
2022/08/12 12:22:10;;;;;;;;;9.00;6.75;;;;;33.08;21.30;101117.19;5043598;28;45237;-60
2022/08/12 12:24:36;;;;;;;;;4.50;4.50;;;;;33.11;21.65;101101.22;5055361;28;46200;-60
2022/08/12 12:27:02;;;;;;;;;10.00;7.00;;;;;33.21;21.22;101106.13;5063063;28;45597;-58
2022/08/12 12:29:30;;;;;;;;;7.75;7.00;;;;;33.24;20.95;101114.66;5064318;28;45324;-60
2022/08/12 12:31:56;;;;;;;;;8.75;6.00;;;;;33.31;21.52;101118.13;5067481;27;45299;-60
2022/08/12 12:34:21;;;;;;;;;5.75;5.50;;;;;33.36;21.16;101113.88;5067334;28;46257;-60
2022/08/12 12:36:47;;;;;;;;;10.00;7.00;;;;;33.39;20.63;101110.72;5065757;27;45379;-60
2022/08/12 12:39:13;;;;;;;;;5.75;5.25;;;;;33.41;20.77;101114.03;5067161;28;45240;-60
2022/08/12 12:41:39;;;;;;;;;5.75;5.25;;;;;33.44;20.80;101108.97;5073262;28;45231;-60
2022/08/12 12:44:04;;;;;;;;;12.75;6.75;;;;;33.49;21.12;101103.59;5070986;28;45360;-60
2022/08/12 12:46:30;;;;;;;;;6.00;6.00;;;;;33.52;20.52;101107.78;5071288;28;45156;-60
2022/08/12 12:48:55;;;;;;;;;9.25;4.75;;;;;33.52;20.89;101114.09;5069466;28;45314;-60
2022/08/12 12:51:21;;;;;;;;;10.75;7.00;;;;;33.53;20.38;101104.00;5070129;28;45244;-60
2022/08/12 12:53:48;;;;;;;;;8.00;5.25;;;;;33.54;20.70;101094.72;5067208;28;46211;-60
2022/08/12 12:56:21;;;;;;;;;8.00;6.75;;;;;33.53;21.22;101085.69;5072396;28;45482;-61
2022/08/12 12:58:52;;;;;;;;;6.25;6.25;;;;;33.59;20.74;101081.19;5067961;28;45394;-60
2022/08/12 13:01:22;;;;;;;;;7.50;7.50;;;;;33.66;20.44;101081.94;5066483;27;45469;-61
2022/08/12 13:03:52;;;;;;;;;6.25;5.50;;;;;33.69;20.69;101077.88;5068172;28;45592;-62